Time;durP1;ratioP1;P1;durP2;ratioP2;P2;SDS_P1;SDS_P2;PMS_P1;PMS_P2;Temp;Humidity;BMP_temperature;BMP_pressure;BME280_temperature;BME280_humidity;BME280_pressure;Samples;Min_cycle;Max_cycle;Signal;HPM_P1;HPM_P2
2021/03/07 00:00:57;;;;;;;13.48;10.85;;;;;;;-3.01;100.00;97256.63;5045902;28;20088;-53
2021/03/07 00:03:23;;;;;;;12.02;10.52;;;;;;;-3.05;100.00;97250.72;5018206;28;20128;-54
2021/03/07 00:05:50;;;;;;;12.75;10.80;;;;;;;-3.07;100.00;97241.31;5043615;28;20485;-54
2021/03/07 00:08:18;;;;;;;12.20;10.45;;;;;;;-3.08;100.00;97245.63;5009812;28;20048;-51
2021/03/07 00:10:45;;;;;;;12.38;10.02;;;;;;;-3.11;100.00;97246.56;5044970;28;20037;-54
2021/03/07 00:13:12;;;;;;;14.73;10.60;;;;;;;-3.11;100.00;97245.72;5009910;28;20053;-51
2021/03/07 00:15:39;;;;;;;14.32;10.15;;;;;;;-3.13;100.00;97239.78;5043600;28;20038;-51
2021/03/07 00:18:06;;;;;;;15.00;10.65;;;;;;;-3.06;100.00;97246.47;5022107;28;20167;-51
2021/03/07 00:20:34;;;;;;;12.23;10.57;;;;;;;-3.06;100.00;97245.59;5047926;28;20047;-53
2021/03/07 00:23:01;;;;;;;14.70;10.73;;;;;;;-3.08;100.00;97247.38;5047053;28;20039;-50
2021/03/07 00:25:27;;;;;;;11.68;10.48;;;;;;;-3.14;100.00;97246.63;5021883;28;20124;-52
2021/03/07 00:27:55;;;;;;;14.10;10.60;;;;;;;-3.23;100.00;97244.34;5040929;28;20112;-52
2021/03/07 00:30:22;;;;;;;11.38;9.80;;;;;;;-3.34;100.00;97248.91;5002440;28;20049;-55
2021/03/07 00:32:49;;;;;;;12.68;9.68;;;;;;;-3.33;100.00;97237.72;5045201;28;20381;-52
2021/03/07 00:35:16;;;;;;;13.73;9.52;;;;;;;-3.37;100.00;97244.69;5010405;28;20041;-52
2021/03/07 00:37:42;;;;;;;11.60;9.93;;;;;;;-3.38;100.00;97244.72;5047843;28;20551;-54
2021/03/07 00:40:11;;;;;;;11.13;9.77;;;;;;;-3.38;100.00;97240.41;5012508;28;20069;-50
2021/03/07 00:42:41;;;;;;;13.90;10.73;;;;;;;-3.48;100.00;97246.69;5044054;28;20068;-51
2021/03/07 00:45:10;;;;;;;11.98;9.75;;;;;;;-3.45;100.00;97232.88;5016938;28;20032;-52
2021/03/07 00:47:37;;;;;;;12.73;10.80;;;;;;;-3.37;100.00;97246.44;5044719;28;20559;-50
2021/03/07 00:50:07;;;;;;;12.20;10.65;;;;;;;-3.39;100.00;97246.47;5005600;28;20041;-52
2021/03/07 00:52:34;;;;;;;11.57;10.15;;;;;;;-3.29;100.00;97235.91;5042706;28;20455;-49
2021/03/07 00:55:01;;;;;;;14.38;12.43;;;;;;;-3.24;100.00;97231.47;5003684;28;20045;-55
2021/03/07 00:57:28;;;;;;;15.32;11.98;;;;;;;-3.23;100.00;97231.44;5044884;28;20536;-54
2021/03/07 00:59:55;;;;;;;14.45;11.20;;;;;;;-3.25;100.00;97233.19;5012457;28;20117;-54
2021/03/07 01:02:22;;;;;;;14.60;11.88;;;;;;;-3.29;100.00;97230.75;5049189;28;20203;-54
2021/03/07 01:04:50;;;;;;;13.80;10.85;;;;;;;-3.30;100.00;97229.91;5042396;28;20103;-55
2021/03/07 01:07:17;;;;;;;15.05;11.27;;;;;;;-3.35;100.00;97218.84;5028584;28;20126;-50
2021/03/07 01:09:43;;;;;;;15.10;11.55;;;;;;;-3.32;100.00;97220.53;5036300;28;20034;-54
2021/03/07 01:12:10;;;;;;;14.57;11.90;;;;;;;-3.39;100.00;97217.25;5007051;28;20048;-52
2021/03/07 01:14:37;;;;;;;13.20;11.80;;;;;;;-3.51;100.00;97214.97;5047472;28;20115;-52
2021/03/07 01:17:04;;;;;;;13.68;10.95;;;;;;;-3.60;100.00;97211.78;5009404;28;20492;-55
2021/03/07 01:19:32;;;;;;;12.90;11.43;;;;;;;-3.69;100.00;97212.00;5047429;28;20041;-55
2021/03/07 01:22:00;;;;;;;17.33;11.23;;;;;;;-3.58;100.00;97207.44;5012012;28;20103;-54
2021/03/07 01:24:27;;;;;;;15.15;11.68;;;;;;;-3.65;100.00;97205.91;5040939;28;20096;-51
2021/03/07 01:26:54;;;;;;;14.23;11.73;;;;;;;-3.58;100.00;97204.00;5016661;28;20119;-55
2021/03/07 01:29:20;;;;;;;12.85;11.50;;;;;;;-3.69;100.00;97204.28;5045359;28;20061;-57
2021/03/07 01:31:47;;;;;;;12.77;10.43;;;;;;;-3.68;100.00;97205.13;5009888;28;20133;-55
2021/03/07 01:34:14;;;;;;;15.55;12.13;;;;;;;-3.72;100.00;97199.19;5023707;28;20389;-56
2021/03/07 01:36:42;;;;;;;12.95;11.02;;;;;;;-3.76;100.00;97200.16;5005737;28;20037;-55
2021/03/07 01:39:08;;;;;;;12.65;11.35;;;;;;;-3.69;100.00;97190.53;5044381;28;20123;-54
2021/03/07 01:41:35;;;;;;;13.98;10.95;;;;;;;-3.68;100.00;97189.66;5013222;28;30916;-56
2021/03/07 01:44:02;;;;;;;14.32;11.60;;;;;;;-3.58;100.00;97186.81;5046903;28;20060;-54
2021/03/07 01:46:29;;;;;;;16.10;12.63;;;;;;;-3.63;100.00;97180.91;5029290;28;20120;-55
2021/03/07 01:48:56;;;;;;;13.38;11.60;;;;;;;-3.60;100.00;97187.75;5034105;28;20041;-55
2021/03/07 01:51:23;;;;;;;14.10;11.80;;;;;;;-3.55;100.00;97175.56;5042671;28;20131;-53
2021/03/07 01:53:51;;;;;;;14.70;12.15;;;;;;;-3.53;100.00;97176.38;5006039;28;20076;-57
2021/03/07 01:56:18;;;;;;;13.43;11.32;;;;;;;-3.64;100.00;97170.66;5049568;28;20493;-55
2021/03/07 01:58:47;;;;;;;12.88;11.52;;;;;;;-3.68;100.00;97176.75;5016072;28;20037;-56
2021/03/07 02:01:13;;;;;;;16.42;11.75;;;;;;;-3.76;100.00;97174.38;5050527;28;20064;-53
2021/03/07 02:03:50;;;;;;;16.90;12.10;;;;;;;-3.74;100.00;97164.91;5011284;28;20036;-55
2021/03/07 02:06:17;;;;;;;14.57;11.77;;;;;;;-3.73;100.00;97165.75;5042869;28;20106;-53
2021/03/07 02:08:44;;;;;;;12.85;10.85;;;;;;;-3.74;100.00;97162.31;5011851;28;20056;-57
2021/03/07 02:11:12;;;;;;;14.68;11.18;;;;;;;-3.84;100.00;97159.13;5044921;28;20489;-52
2021/03/07 02:13:40;;;;;;;14.73;11.25;;;;;;;-3.71;100.00;97156.25;5012106;28;20100;-52
2021/03/07 02:16:09;;;;;;;15.85;11.68;;;;;;;-3.74;100.00;97154.59;5040802;28;20033;-53
2021/03/07 02:18:37;;;;;;;16.83;12.02;;;;;;;-3.71;100.00;97157.09;5006400;28;20452;-54
2021/03/07 02:21:06;;;;;;;16.00;11.65;;;;;;;-3.70;100.00;97152.78;5045220;28;20083;-54
2021/03/07 02:23:36;;;;;;;16.90;11.75;;;;;;;-3.72;100.00;97152.81;5011602;28;20037;-54
2021/03/07 02:26:04;;;;;;;16.92;12.20;;;;;;;-3.75;100.00;97154.63;5047585;28;20063;-51
2021/03/07 02:28:31;;;;;;;16.55;11.55;;;;;;;-3.70;100.00;97160.50;5013728;28;20040;-54
2021/03/07 02:30:58;;;;;;;16.08;11.43;;;;;;;-3.71;100.00;97162.25;5044096;28;20061;-56
2021/03/07 02:33:28;;;;;;;14.68;11.88;;;;;;;-3.68;100.00;97153.56;5006313;28;20107;-55
2021/03/07 02:35:59;;;;;;;15.20;11.40;;;;;;;-3.71;100.00;97154.50;5035212;28;20498;-55
2021/03/07 02:38:26;;;;;;;16.92;12.52;;;;;;;-3.70;100.00;97153.63;5041523;28;20095;-52
2021/03/07 02:40:56;;;;;;;13.88;11.70;;;;;;;-3.76;100.00;97153.78;5017639;28;20037;-54
2021/03/07 02:43:26;;;;;;;14.93;12.02;;;;;;;-3.74;100.00;97138.28;5043518;28;20076;-54
2021/03/07 02:45:55;;;;;;;16.87;12.00;;;;;;;-3.74;100.00;97154.59;5015393;28;20061;-53
2021/03/07 02:48:25;;;;;;;13.73;11.82;;;;;;;-3.73;100.00;97147.69;5043107;28;20127;-56
2021/03/07 02:50:52;;;;;;;14.40;12.82;;;;;;;-3.76;100.00;97148.63;5015462;28;20130;-54
2021/03/07 02:53:21;;;;;;;16.20;11.60;;;;;;;-3.78;100.00;97144.41;5044351;28;20087;-54
2021/03/07 02:55:54;;;;;;;14.43;11.93;;;;;;;-3.78;100.00;97142.69;5004776;28;20064;-53
2021/03/07 02:58:24;;;;;;;17.23;11.40;;;;;;;-3.90;100.00;97143.81;5047344;28;20035;-53
2021/03/07 03:00:55;;;;;;;16.50;12.87;;;;;;;-3.82;100.00;97141.91;5009716;28;20029;-57
2021/03/07 03:03:25;;;;;;;21.80;12.80;;;;;;;-3.88;100.00;97134.34;5047742;28;20051;-52
2021/03/07 03:05:53;;;;;;;15.25;12.48;;;;;;;-3.81;100.00;97135.03;5015227;28;20099;-55
2021/03/07 03:08:21;;;;;;;18.40;12.95;;;;;;;-3.84;100.00;97133.38;5044050;28;20037;-57
2021/03/07 03:10:49;;;;;;;15.63;12.07;;;;;;;-3.78;100.00;97132.38;5015005;28;20115;-55
2021/03/07 03:13:30;;;;;;;14.02;12.43;;;;;;;-3.85;100.00;97125.69;5048171;28;20033;-56
2021/03/07 03:15:58;;;;;;;16.85;12.07;;;;;;;-3.89;100.00;97119.78;5000669;28;20092;-57
2021/03/07 03:18:26;;;;;;;15.88;12.18;;;;;;;-3.88;100.00;97118.88;5046629;28;20071;-52
2021/03/07 03:20:56;;;;;;;13.70;11.57;;;;;;;-3.86;100.00;97114.53;5018577;28;20128;-54
2021/03/07 03:23:24;;;;;;;15.73;12.80;;;;;;;-3.85;100.00;97105.94;5047930;28;20043;-53
2021/03/07 03:25:51;;;;;;;15.82;12.40;;;;;;;-3.90;100.00;97106.91;5018870;28;20635;-53
2021/03/07 03:28:20;;;;;;;17.67;13.50;;;;;;;-3.86;100.00;97098.22;5049112;28;20043;-56
2021/03/07 03:30:48;;;;;;;19.35;13.15;;;;;;;-3.87;100.00;97107.69;5014922;28;20045;-52
2021/03/07 03:33:16;;;;;;;17.00;12.93;;;;;;;-3.86;100.00;97106.78;5043153;28;20496;-56
2021/03/07 03:35:45;;;;;;;16.70;12.73;;;;;;;-3.90;100.00;97096.63;5019834;28;20055;-52
2021/03/07 03:38:11;;;;;;;14.75;12.30;;;;;;;-3.85;100.00;97097.34;5040897;28;20084;-56
2021/03/07 03:40:38;;;;;;;17.85;13.05;;;;;;;-3.85;100.00;97094.78;5056027;28;20040;-55
2021/03/07 03:43:08;;;;;;;17.15;13.65;;;;;;;-3.84;100.00;97097.31;5010911;28;20068;-54
2021/03/07 03:45:37;;;;;;;19.25;13.25;;;;;;;-3.88;100.00;97103.44;5049835;28;20037;-51
2021/03/07 03:48:08;;;;;;;15.60;13.05;;;;;;;-3.90;100.00;97096.63;5010791;28;20065;-55
2021/03/07 03:50:38;;;;;;;15.93;12.15;;;;;;;-4.02;100.00;97096.97;5048245;28;20488;-53
2021/03/07 03:53:06;;;;;;;;;;;;;;;-4.13;100.00;97095.50;5024935;28;20041;-56
2021/03/07 03:55:34;;;;;;;13.88;11.68;;;;;;;-4.22;100.00;97095.72;5044638;28;19964;-52
2021/03/07 03:58:05;;;;;;;15.73;12.23;;;;;;;-4.21;100.00;97091.41;5012037;28;20119;-57
2021/03/07 04:00:34;;;;;;;16.48;12.80;;;;;;;-4.18;100.00;97091.34;5045841;28;20044;-54
2021/03/07 04:03:01;;;;;;;14.02;12.05;;;;;;;-4.12;100.00;97092.03;5005427;28;20061;-56
2021/03/07 04:05:30;;;;;;;16.33;13.32;;;;;;;-4.18;100.00;97097.34;5045184;28;20124;-56
2021/03/07 04:07:58;;;;;;;14.73;12.95;;;;;;;-4.16;100.00;97095.59;5012816;28;20154;-56
2021/03/07 04:10:26;;;;;;;16.52;12.88;;;;;;;-4.14;100.00;97093.78;5041179;28;20590;-54
2021/03/07 04:12:56;;;;;;;14.00;12.27;;;;;;;-4.11;100.00;97095.44;5014603;28;20656;-54
2021/03/07 04:15:23;;;;;;;15.67;12.90;;;;;;;-4.14;100.00;97093.78;5044362;28;20570;-53
2021/03/07 04:17:52;;;;;;;18.45;13.00;;;;;;;-4.13;100.00;97092.06;5013814;28;20064;-54
2021/03/07 04:20:20;;;;;;;16.25;13.75;;;;;;;-4.17;100.00;97090.47;5048129;28;20037;-57
2021/03/07 04:22:49;;;;;;;14.57;11.85;;;;;;;-4.38;100.00;97097.84;5010317;28;20138;-55
2021/03/07 04:25:16;;;;;;;16.08;11.90;;;;;;;-4.60;100.00;97091.53;5043285;28;20073;-53
2021/03/07 04:27:43;;;;;;;16.00;12.90;;;;;;;-4.59;100.00;97091.47;5031663;28;20037;-55
2021/03/07 04:30:12;;;;;;;18.23;12.75;;;;;;;-4.68;100.00;97099.44;5038913;28;20037;-56
2021/03/07 04:32:40;;;;;;;16.30;12.10;;;;;;;-4.63;100.00;97083.88;5044529;28;20439;-51
2021/03/07 04:35:09;;;;;;;17.23;12.52;;;;;;;-4.69;100.00;97090.00;4996346;28;20047;-54
2021/03/07 04:37:35;;;;;;;15.15;12.52;;;;;;;-4.59;100.00;97098.38;5043884;28;20052;-53
2021/03/07 04:40:04;;;;;;;17.27;13.07;;;;;;;-4.80;100.00;97092.84;5015750;28;20079;-52
2021/03/07 04:42:31;;;;;;;16.60;13.27;;;;;;;-4.91;100.00;97093.97;5040572;28;20088;-50
2021/03/07 04:44:57;;;;;;;19.77;13.35;;;;;;;-4.83;100.00;97092.06;5010998;28;20076;-51
2021/03/07 04:47:24;;;;;;;16.60;13.35;;;;;;;-4.86;100.00;97092.97;5042650;28;20045;-50
2021/03/07 04:49:51;;;;;;;18.48;14.10;;;;;;;-4.88;100.00;97083.63;5010356;28;20453;-55
2021/03/07 04:52:18;;;;;;;17.83;13.40;;;;;;;-4.76;100.00;97088.47;5046094;28;20119;-56
2021/03/07 04:54:45;;;;;;;17.73;13.77;;;;;;;-4.73;100.00;97085.81;5013102;28;20560;-56
2021/03/07 04:57:12;;;;;;;16.30;12.55;;;;;;;-4.65;100.00;97083.06;5045203;28;20045;-49
2021/03/07 04:59:39;;;;;;;17.63;13.15;;;;;;;-4.66;100.00;97082.22;5012872;28;20060;-56
2021/03/07 05:02:06;;;;;;;19.05;14.38;;;;;;;-4.60;100.00;97076.94;5046122;28;20041;-56
2021/03/07 05:04:33;;;;;;;16.75;13.38;;;;;;;-4.56;100.00;97085.44;5007164;28;22226;-53
2021/03/07 05:07:00;;;;;;;21.05;13.75;;;;;;;-4.61;100.00;97080.41;5042415;28;20059;-53
2021/03/07 05:09:27;;;;;;;16.67;12.88;;;;;;;-4.57;100.00;97074.28;5010074;28;20068;-56
2021/03/07 05:11:54;;;;;;;17.92;13.30;;;;;;;-4.57;100.00;97070.88;5041599;28;20039;-52
2021/03/07 05:14:22;;;;;;;19.17;13.07;;;;;;;-4.51;100.00;97073.28;5045968;28;20461;-54
2021/03/07 05:16:49;;;;;;;16.73;13.85;;;;;;;-4.55;100.00;97064.78;5019895;28;20048;-55
2021/03/07 05:19:15;;;;;;;17.75;12.90;;;;;;;-4.58;100.00;97069.16;5044790;28;20044;-52
2021/03/07 05:21:43;;;;;;;17.50;13.57;;;;;;;-4.52;100.00;97074.16;5012486;28;20095;-53
2021/03/07 05:24:10;;;;;;;18.45;12.45;;;;;;;-4.50;100.00;97074.16;5044565;28;20117;-55
2021/03/07 05:26:37;;;;;;;17.05;13.50;;;;;;;-4.61;100.00;97058.94;5005461;28;20049;-51
2021/03/07 05:29:03;;;;;;;19.40;12.98;;;;;;;-4.67;100.00;97061.69;5042636;28;20671;-55
2021/03/07 05:31:31;;;;;;;17.33;13.05;;;;;;;-4.59;100.00;97063.19;5013428;28;20091;-56
2021/03/07 05:33:58;;;;;;;14.65;12.90;;;;;;;-4.98;100.00;97061.56;5043727;28;20489;-53
2021/03/07 05:36:25;;;;;;;16.35;13.48;;;;;;;-5.01;100.00;97059.91;5006545;28;20441;-52
2021/03/07 05:38:52;;;;;;;16.75;12.75;;;;;;;-4.88;100.00;97057.91;5038741;28;20660;-50
2021/03/07 05:41:19;;;;;;;18.25;12.70;;;;;;;-4.82;100.00;97060.31;5012553;28;20118;-51
2021/03/07 05:43:48;;;;;;;19.67;13.45;;;;;;;-4.89;100.00;97064.75;5024039;28;20502;-54
2021/03/07 05:46:16;;;;;;;16.40;13.13;;;;;;;-4.78;100.00;97061.94;5008677;28;20044;-56
2021/03/07 05:48:44;;;;;;;16.67;13.27;;;;;;;-4.66;100.00;97063.38;5041104;28;20072;-53
2021/03/07 05:51:12;;;;;;;17.15;12.90;;;;;;;-4.59;100.00;97060.59;5010376;28;20037;-49
2021/03/07 05:53:40;;;;;;;18.15;13.00;;;;;;;-4.52;100.00;97053.56;5044062;28;20152;-52
2021/03/07 05:56:10;;;;;;;20.42;13.07;;;;;;;-4.56;100.00;97057.97;5037017;28;20512;-53
2021/03/07 05:58:37;;;;;;;18.98;13.32;;;;;;;-4.63;100.00;97051.28;5027670;28;20061;-50
2021/03/07 06:01:04;;;;;;;18.55;12.93;;;;;;;-4.60;100.00;97058.09;5042659;28;20037;-52
2021/03/07 06:03:31;;;;;;;16.25;12.82;;;;;;;-4.60;100.00;97061.50;5013366;28;20044;-56
2021/03/07 06:05:59;;;;;;;15.98;12.32;;;;;;;-4.46;100.00;97057.75;5045068;28;20075;-56
2021/03/07 06:08:26;;;;;;;16.33;12.98;;;;;;;-4.54;100.00;97058.78;5002711;28;20538;-54
2021/03/07 06:10:52;;;;;;;19.85;13.35;;;;;;;-4.57;100.00;97060.59;5046107;28;20041;-51
2021/03/07 06:13:19;;;;;;;18.23;13.15;;;;;;;-4.52;100.00;97051.00;5009503;28;20126;-52
2021/03/07 06:15:51;;;;;;;15.68;13.13;;;;;;;-4.53;100.00;97055.31;5036299;28;20404;-54
2021/03/07 06:18:20;;;;;;;16.55;13.07;;;;;;;-4.19;100.00;97057.03;5010008;28;20049;-50
2021/03/07 06:20:50;;;;;;;17.08;12.88;;;;;;;-4.21;100.00;97052.81;5043311;28;20090;-56
2021/03/07 06:23:17;;;;;;;17.88;13.60;;;;;;;-4.05;100.00;97051.50;5006160;28;20072;-52
2021/03/07 06:25:46;;;;;;;16.75;13.48;;;;;;;-3.92;100.00;97046.88;5040926;28;20068;-51
2021/03/07 06:28:20;;;;;;;19.70;13.45;;;;;;;-3.87;100.00;97040.69;5014740;28;20130;-52
2021/03/07 06:30:47;;;;;;;19.02;13.35;;;;;;;-3.72;100.00;97048.88;5045138;28;20076;-57
2021/03/07 06:33:28;;;;;;;20.40;13.13;;;;;;;-3.55;100.00;97035.50;5013073;28;20417;-55
2021/03/07 06:36:16;;;;;;;16.25;12.93;;;;;;;-3.43;100.00;97032.59;5048531;28;20041;-56
2021/03/07 06:38:45;;;;;;;17.33;13.30;;;;;;;-3.35;100.00;97030.63;5015581;28;20711;-56
2021/03/07 06:41:16;;;;;;;16.00;12.38;;;;;;;-3.45;100.00;97019.72;5045401;28;20045;-49
2021/03/07 06:43:42;;;;;;;18.58;13.52;;;;;;;-3.28;100.00;97018.38;5009591;28;20583;-56
2021/03/07 06:46:27;;;;;;;16.13;13.13;;;;;;;-3.38;100.00;97010.91;5044908;28;20390;-55
2021/03/07 06:48:54;;;;;;;17.50;13.38;;;;;;;-3.03;100.00;97009.00;5006331;28;20036;-50
2021/03/07 06:51:26;;;;;;;20.27;13.15;;;;;;;-2.97;100.00;97007.97;5045117;28;20041;-56
2021/03/07 06:53:54;;;;;;;18.63;13.57;;;;;;;-2.89;100.00;97006.84;5011647;28;20064;-55
2021/03/07 06:56:51;;;;;;;15.77;13.10;;;;;;;-2.66;100.00;97007.81;5050392;28;20045;-54
2021/03/07 06:59:19;;;;;;;18.42;12.60;;;;;;;-2.51;100.00;96998.72;4936094;28;20051;-55
2021/03/07 07:01:47;;;;;;;16.33;13.27;;;;;;;-2.38;100.00;97000.81;5024288;28;20823;-54
2021/03/07 07:04:15;;;;;;;20.02;13.10;;;;;;;-2.30;100.00;97007.50;5017226;28;20041;-54
2021/03/07 07:06:43;;;;;;;18.63;13.35;;;;;;;-1.95;100.00;96993.31;5037984;28;20123;-54
2021/03/07 07:09:11;;;;;;;18.55;13.45;;;;;;;-1.88;100.00;96992.22;5015774;28;20080;-55
2021/03/07 07:11:42;;;;;;;18.80;13.25;;;;;;;-1.42;100.00;97000.00;5046625;28;20045;-54
2021/03/07 07:14:10;;;;;;;19.17;13.68;;;;;;;-1.49;100.00;97002.81;5046202;28;20040;-51
2021/03/07 07:16:37;;;;;;;19.63;12.73;;;;;;;-1.27;100.00;97008.03;5040062;28;20493;-51
2021/03/07 07:19:04;;;;;;;15.70;12.75;;;;;;;-1.06;100.00;97003.75;5044683;28;20120;-49
2021/03/07 07:21:31;;;;;;;13.82;12.15;;;;;;;-0.83;100.00;97002.81;5025724;28;20671;-51
2021/03/07 07:23:58;;;;;;;15.73;12.55;;;;;;;-0.61;100.00;97005.41;5042501;28;20065;-55
2021/03/07 07:26:27;;;;;;;15.70;12.45;;;;;;;-0.56;100.00;97008.63;5015754;28;20393;-52
2021/03/07 07:28:54;;;;;;;15.57;12.00;;;;;;;-0.42;100.00;96991.69;5046015;28;20033;-54
2021/03/07 07:31:32;;;;;;;15.95;11.98;;;;;;;-0.59;100.00;96992.38;5005723;28;21195;-53
2021/03/07 07:34:01;;;;;;;14.52;11.55;;;;;;;-0.40;100.00;96997.66;5021240;28;20063;-52
2021/03/07 07:36:32;;;;;;;16.48;12.20;;;;;;;0.05;100.00;96994.00;5005261;28;20068;-48
2021/03/07 07:39:01;;;;;;;17.42;11.82;;;;;;;-0.08;100.00;96984.16;5046845;28;20044;-47
2021/03/07 07:41:34;;;;;;;14.15;11.85;;;;;;;-0.30;100.00;96989.44;5008875;28;20073;-52
2021/03/07 07:44:03;;;;;;;14.15;11.07;;;;;;;-0.02;100.00;96986.47;5044874;28;20044;-50
2021/03/07 07:46:55;;;;;;;14.43;11.07;;;;;;;0.21;100.00;96988.06;5015010;28;20481;-50
2021/03/07 07:49:40;;;;;;;15.95;12.05;;;;;;;-0.47;100.00;96985.88;5043508;28;20115;-53
2021/03/07 07:52:43;;;;;;;14.70;11.57;;;;;;;0.20;100.00;96980.34;5005922;28;20739;-50
2021/03/07 07:55:14;;;;;;;16.73;12.30;;;;;;;0.13;100.00;96982.38;5047537;28;20092;-49
2021/03/07 07:57:50;;;;;;;15.73;11.70;;;;;;;0.16;100.00;96981.41;5004149;28;20068;-51
2021/03/07 08:00:23;;;;;;;15.00;12.05;;;;;;;0.66;100.00;96973.91;5040887;28;20041;-50
2021/03/07 08:02:54;;;;;;;16.83;12.43;;;;;;;0.80;100.00;96983.66;5011695;28;20494;-55
2021/03/07 08:05:45;;;;;;;18.75;12.15;;;;;;;0.71;100.00;96973.69;5046105;28;20072;-52
2021/03/07 08:08:14;;;;;;;16.25;11.85;;;;;;;0.70;100.00;96970.25;5006367;28;20091;-54
2021/03/07 08:10:49;;;;;;;15.17;12.00;;;;;;;1.31;100.00;96968.25;5043016;28;20092;-48
2021/03/07 08:13:44;;;;;;;16.48;13.30;;;;;;;1.59;100.00;96955.56;5006905;28;20091;-51
2021/03/07 08:16:11;;;;;;;13.23;11.15;;;;;;;1.14;100.00;96953.50;5046864;28;20041;-53
2021/03/07 08:18:50;;;;;;;14.32;11.45;;;;;;;1.65;100.00;96962.19;5006674;28;20556;-49
2021/03/07 08:21:18;;;;;;;16.52;12.90;;;;;;;1.94;100.00;96955.53;5044749;28;20046;-49
2021/03/07 08:24:03;;;;;;;15.85;13.05;;;;;;;1.88;100.00;96948.88;5010238;28;20110;-53
2021/03/07 08:26:51;;;;;;;16.95;12.40;;;;;;;2.18;100.00;96953.41;5041302;28;20449;-51
2021/03/07 08:29:41;;;;;;;16.25;13.18;;;;;;;2.62;100.00;96950.19;5004223;28;20042;-54
2021/03/07 08:32:27;;;;;;;15.57;12.95;;;;;;;2.08;100.00;96936.59;5044144;28;20583;-55
2021/03/07 08:34:55;;;;;;;16.23;13.00;;;;;;;2.57;100.00;96941.75;5037779;28;20037;-53
2021/03/07 08:37:23;;;;;;;17.10;13.40;;;;;;;2.44;100.00;96932.94;5021111;28;20095;-52
2021/03/07 08:40:23;;;;;;;18.70;15.63;;;;;;;2.90;100.00;96936.47;5034711;28;20039;-51
2021/03/07 08:42:50;;;;;;;17.87;13.13;;;;;;;3.13;100.00;96923.91;5012481;28;20550;-54
2021/03/07 08:45:18;;;;;;;18.60;13.63;;;;;;;2.89;100.00;96928.72;5046514;28;20441;-48
2021/03/07 08:47:52;;;;;;;20.52;14.45;;;;;;;2.81;100.00;96916.13;5034763;28;20070;-49
2021/03/07 08:50:20;;;;;;;20.98;14.45;;;;;;;2.74;100.00;96922.63;5041993;28;20126;-49
2021/03/07 08:52:48;;;;;;;18.13;14.70;;;;;;;3.02;100.00;96917.53;5044787;28;20045;-52
2021/03/07 08:55:16;;;;;;;20.70;14.07;;;;;;;3.05;100.00;96922.56;5003609;28;20110;-54
2021/03/07 08:57:47;;;;;;;18.63;13.93;;;;;;;3.56;100.00;96912.66;5046560;28;20096;-56
2021/03/07 09:00:16;;;;;;;16.65;13.25;;;;;;;3.81;100.00;96906.00;4999246;28;20064;-53
2021/03/07 09:02:44;;;;;;;17.00;13.75;;;;;;;3.84;100.00;96904.97;5044545;28;20045;-56
2021/03/07 09:05:27;;;;;;;18.77;13.93;;;;;;;3.78;100.00;96901.78;5016062;28;20037;-53
2021/03/07 09:08:11;;;;;;;19.33;14.38;;;;;;;4.05;100.00;96888.00;5030249;28;20045;-54
2021/03/07 09:10:40;;;;;;;19.70;13.60;;;;;;;3.56;100.00;96894.41;5012338;28;20703;-53
2021/03/07 09:13:11;;;;;;;18.75;14.10;;;;;;;4.26;100.00;96891.06;5041832;28;20060;-49
2021/03/07 09:15:39;;;;;;;18.60;14.05;;;;;;;4.27;100.00;96887.53;5004880;28;20095;-53
2021/03/07 09:18:26;;;;;;;16.85;13.38;;;;;;;4.12;100.00;96889.31;5041882;28;20563;-52
2021/03/07 09:20:55;;;;;;;17.00;13.98;;;;;;;4.55;100.00;96877.97;5006976;28;20064;-49
2021/03/07 09:23:37;;;;;;;20.63;15.43;;;;;;;4.87;100.00;96881.13;5034316;28;20041;-54
2021/03/07 09:26:08;;;;;;;18.75;14.52;;;;;;;4.63;100.00;96875.72;5012020;28;20040;-52
2021/03/07 09:28:36;;;;;;;;;;;;;;;4.74;100.00;96876.69;5043143;28;20033;-53
2021/03/07 09:31:06;;;;;;;19.23;13.88;;;;;;;5.07;100.00;96872.84;5014600;28;19967;-49
2021/03/07 09:33:34;;;;;;;18.38;13.63;;;;;;;4.64;100.00;96874.75;5041942;28;20051;-51
2021/03/07 09:36:07;;;;;;;29.27;15.13;;;;;;;4.94;100.00;96867.56;5003896;28;20116;-51
2021/03/07 09:38:47;;;;;;;21.17;13.73;;;;;;;5.04;100.00;96864.38;5043147;28;20099;-48
2021/03/07 09:41:16;;;;;;;18.58;13.88;;;;;;;5.04;100.00;96864.38;5003928;28;20037;-52
2021/03/07 09:43:45;;;;;;;20.02;14.32;;;;;;;5.56;100.00;96855.66;5045111;28;20515;-50
2021/03/07 09:46:13;;;;;;;21.42;14.48;;;;;;;5.75;100.00;96850.84;5007888;28;20065;-52
2021/03/07 09:48:41;;;;;;;21.13;14.80;;;;;;;5.82;100.00;96857.34;5043842;28;20044;-53
2021/03/07 09:51:12;;;;;;;20.17;14.52;;;;;;;5.99;100.00;96848.34;5011570;28;20049;-52
2021/03/07 09:53:40;;;;;;;19.98;15.02;;;;;;;5.80;100.00;96846.13;5042301;28;20095;-50
2021/03/07 09:56:20;;;;;;;17.10;14.20;;;;;;;5.70;100.00;96847.69;5017933;28;20098;-50
2021/03/07 09:58:47;;;;;;;19.08;14.38;;;;;;;5.30;100.00;96844.31;5041337;28;20037;-52
2021/03/07 10:01:14;;;;;;;21.02;14.32;;;;;;;5.51;100.00;96845.53;4996858;28;20118;-50
2021/03/07 10:03:42;;;;;;;19.88;14.80;;;;;;;5.97;100.00;96834.53;5043931;28;20041;-50
2021/03/07 10:06:11;;;;;;;19.73;14.32;;;;;;;6.21;100.00;96829.34;5008591;28;22850;-52
2021/03/07 10:08:39;;;;;;;19.02;14.25;;;;;;;5.94;100.00;96829.50;5040532;28;20091;-48
2021/03/07 10:11:17;;;;;;;19.25;13.73;;;;;;;5.89;100.00;96818.50;5014592;28;20060;-48
2021/03/07 10:13:45;;;;;;;19.60;14.00;;;;;;;5.86;100.00;96819.53;5042393;28;20138;-48
2021/03/07 10:16:24;;;;;;;18.23;14.23;;;;;;;6.13;100.00;96814.19;5027094;28;20532;-54
2021/03/07 10:19:09;;;;;;;18.50;14.23;;;;;;;5.97;100.00;96807.53;5041942;28;20120;-52
2021/03/07 10:21:36;;;;;;;19.02;13.73;;;;;;;5.95;100.00;96807.59;5007743;28;20095;-51
2021/03/07 10:24:06;;;;;;;19.60;14.95;;;;;;;5.73;100.00;96797.78;5038760;28;20100;-52
2021/03/07 10:26:33;;;;;;;18.98;14.10;;;;;;;6.39;98.47;96796.59;5039077;28;20100;-48
2021/03/07 10:28:59;;;;;;;20.45;14.13;;;;;;;6.54;94.63;96788.59;5017691;28;20037;-51
2021/03/07 10:31:26;;;;;;;17.75;13.60;;;;;;;6.72;93.33;96779.38;5040609;28;20103;-51
2021/03/07 10:34:00;;;;;;;19.25;14.43;;;;;;;6.93;98.50;96782.19;5009940;28;20044;-52
2021/03/07 10:36:27;;;;;;;17.40;13.20;;;;;;;6.49;100.00;96775.00;5038750;28;20073;-49
2021/03/07 10:39:10;;;;;;;18.95;13.75;;;;;;;6.72;100.00;96763.66;4995824;28;20037;-54
2021/03/07 10:41:37;;;;;;;20.65;14.20;;;;;;;6.74;100.00;96766.16;5043271;28;20452;-49
2021/03/07 10:44:07;;;;;;;18.75;14.10;;;;;;;7.03;100.00;96766.63;5007874;28;20116;-48
2021/03/07 10:46:34;;;;;;;20.70;13.68;;;;;;;6.78;98.82;96767.59;5044290;28;20053;-53
2021/03/07 10:49:21;;;;;;;17.58;13.32;;;;;;;7.24;96.73;96762.38;5010871;28;20041;-54
2021/03/07 10:51:49;;;;;;;20.45;15.75;;;;;;;7.11;100.00;96756.38;5040753;28;20053;-51
2021/03/07 10:54:16;;;;;;;22.75;15.20;;;;;;;7.11;100.00;96762.47;5010019;28;20693;-48
2021/03/07 10:56:43;;;;;;;21.08;14.95;;;;;;;6.95;100.00;96759.34;5040606;28;20068;-52
2021/03/07 10:59:11;;;;;;;21.08;14.45;;;;;;;6.87;100.00;96757.25;5005618;28;20471;-52
2021/03/07 11:01:39;;;;;;;19.58;15.18;;;;;;;7.11;100.00;96748.53;5039664;28;20510;-51
2021/03/07 11:04:07;;;;;;;20.63;15.30;;;;;;;7.36;100.00;96748.34;5000594;28;20037;-52
2021/03/07 11:06:34;;;;;;;17.50;11.52;;;;;;;6.97;100.00;96759.22;5044673;28;20099;-53
2021/03/07 11:09:02;;;;;;;18.90;13.82;;;;;;;7.03;100.00;96753.50;4998536;28;20056;-55
2021/03/07 11:11:29;;;;;;;17.73;13.48;;;;;;;6.80;100.00;96753.44;5044091;28;20079;-48
2021/03/07 11:13:56;;;;;;;18.65;13.18;;;;;;;7.08;100.00;96756.59;5009901;28;20052;-52
2021/03/07 11:16:22;;;;;;;18.83;14.60;;;;;;;7.34;100.00;96752.84;5041120;28;20132;-52
2021/03/07 11:18:49;;;;;;;18.85;13.38;;;;;;;7.31;100.00;96739.97;5009029;28;20044;-48
2021/03/07 11:21:17;;;;;;;17.50;13.32;;;;;;;7.36;100.00;96736.97;5043863;28;20052;-53
2021/03/07 11:23:43;;;;;;;16.42;10.35;;;;;;;7.53;100.00;96739.13;5048525;28;20472;-54